createdAt,value
2019-04-26T00:01:15.985Z,13.10
2019-04-26T00:03:48.392Z,13.00
2019-04-26T00:06:18.863Z,13.00
2019-04-26T00:08:50.755Z,12.90
2019-04-26T00:11:35.202Z,12.80
2019-04-26T00:14:23.883Z,12.70
2019-04-26T00:16:55.825Z,12.60
2019-04-26T00:19:26.564Z,12.60
2019-04-26T00:21:57.128Z,12.60
2019-04-26T00:24:28.527Z,12.60
2019-04-26T00:26:58.928Z,12.60
2019-04-26T00:29:29.185Z,12.60
2019-04-26T00:32:01.167Z,12.70
2019-04-26T00:34:34.729Z,12.70
2019-04-26T00:37:03.402Z,12.70
2019-04-26T00:39:33.657Z,12.80
2019-04-26T00:42:04.128Z,12.80
2019-04-26T00:44:34.380Z,12.80
2019-04-26T00:47:04.631Z,12.80
2019-04-26T00:49:43.425Z,12.90
2019-04-26T00:52:06.879Z,12.90
2019-04-26T00:54:37.143Z,12.90
2019-04-26T00:57:07.438Z,12.90
2019-04-26T00:59:37.986Z,12.80
2019-04-26T01:02:09.948Z,12.70
2019-04-26T01:04:40.203Z,12.60
2019-04-26T01:07:10.703Z,12.60
2019-04-26T01:09:41.263Z,12.60
2019-04-26T01:12:11.518Z,12.60
2019-04-26T01:14:41.773Z,12.60
2019-04-26T01:17:12.028Z,12.50
2019-04-26T01:19:42.391Z,12.50
2019-04-26T01:22:19.274Z,12.50
2019-04-26T01:24:49.836Z,12.40
2019-04-26T01:27:21.427Z,12.40
2019-04-26T01:29:51.939Z,12.40
2019-04-26T01:32:22.225Z,12.30
2019-04-26T01:34:52.738Z,12.30
2019-04-26T01:37:24.609Z,12.20
2019-04-26T01:39:56.892Z,12.20
2019-04-26T01:42:44.981Z,12.20
2019-04-26T01:45:25.811Z,12.20
2019-04-26T01:48:00.441Z,12.20
2019-04-26T01:50:31.628Z,12.20
2019-04-26T01:53:01.993Z,12.10
2019-04-26T01:55:32.281Z,12.20
2019-04-26T01:58:04.157Z,12.20
2019-04-26T02:00:46.504Z,12.20
2019-04-26T02:03:21.506Z,12.30
2019-04-26T02:05:52.932Z,12.20
2019-04-26T02:08:24.452Z,12.30
2019-04-26T02:10:54.842Z,12.30
2019-04-26T02:13:25.297Z,12.40
2019-04-26T02:15:55.599Z,12.40
2019-04-26T02:18:25.853Z,12.40
2019-04-26T02:21:11.909Z,12.50
2019-04-26T02:23:59.901Z,12.50
2019-04-26T02:26:34.941Z,12.50
2019-04-26T02:29:14.968Z,12.60
2019-04-26T02:31:47.979Z,12.70
2019-04-26T02:34:18.265Z,12.80
2019-04-26T02:36:58.031Z,12.70
2019-04-26T02:39:39.000Z,12.70
2019-04-26T02:42:28.812Z,12.70
2019-04-26T02:45:29.975Z,12.60
2019-04-26T02:48:16.606Z,12.60
2019-04-26T02:51:01.117Z,12.60
2019-04-26T02:53:56.416Z,12.60
2019-04-26T02:56:42.155Z,12.60
2019-04-26T02:59:20.017Z,12.60
2019-04-26T03:01:50.487Z,12.60
2019-04-26T03:04:21.536Z,12.50
2019-04-26T03:07:02.934Z,12.50
2019-04-26T03:09:24.759Z,12.50
2019-04-26T03:12:05.552Z,12.50
2019-04-26T03:14:52.755Z,12.50
2019-04-26T03:17:26.103Z,12.50
2019-04-26T03:20:16.535Z,12.40
2019-04-26T03:22:54.192Z,12.40
2019-04-26T03:25:36.562Z,12.40
2019-04-26T03:28:32.725Z,12.40
2019-04-26T03:31:42.902Z,12.30
2019-04-26T03:34:36.302Z,12.20
2019-04-26T03:37:57.222Z,12.10
2019-04-26T03:40:57.684Z,12.00
2019-04-26T03:43:59.592Z,12.00
2019-04-26T03:46:37.750Z,12.00
2019-04-26T03:49:40.060Z,11.90
2019-04-26T03:52:21.685Z,11.90
2019-04-26T03:55:05.140Z,11.90
2019-04-26T03:57:46.161Z,11.80
2019-04-26T04:00:18.251Z,11.80
2019-04-26T04:03:13.739Z,11.80
2019-04-26T04:05:50.308Z,11.80
2019-04-26T04:08:53.856Z,11.90
2019-04-26T04:11:31.768Z,11.90
2019-04-26T04:14:18.063Z,12.00
2019-04-26T04:17:03.642Z,12.00
2019-04-26T04:20:00.895Z,12.10
2019-04-26T04:22:37.922Z,12.10
2019-04-26T04:25:15.585Z,12.10
2019-04-26T04:28:03.447Z,12.20
2019-04-26T04:31:01.470Z,12.20
2019-04-26T04:34:04.401Z,12.30
2019-04-26T04:36:46.955Z,12.50
2019-04-26T04:39:30.977Z,12.60
2019-04-26T04:42:48.115Z,12.70
2019-04-26T04:45:42.483Z,12.90
2019-04-26T04:48:33.206Z,13.20
2019-04-26T04:51:33.990Z,13.50
2019-04-26T04:54:39.698Z,13.70
2019-04-26T04:57:34.170Z,13.90
2019-04-26T05:00:09.868Z,14.10
2019-04-26T05:03:30.139Z,14.20
2019-04-26T05:06:33.241Z,14.30
2019-04-26T05:09:19.556Z,14.40
2019-04-26T05:12:12.683Z,14.50
2019-04-26T05:15:15.622Z,14.60
2019-04-26T05:18:24.634Z,14.80
2019-04-26T05:21:17.119Z,15.00
2019-04-26T05:24:04.337Z,15.00
2019-04-26T05:27:01.967Z,15.10
2019-04-26T05:29:59.705Z,15.20
2019-04-26T05:33:10.858Z,15.40
2019-04-26T05:36:14.495Z,15.60
2019-04-26T05:39:03.838Z,15.90
2019-04-26T05:42:16.103Z,16.00
2019-04-26T05:45:21.325Z,16.20
2019-04-26T05:48:24.925Z,16.40
2019-04-26T05:51:32.915Z,16.60
2019-04-26T05:54:15.876Z,16.80
2019-04-26T05:57:25.169Z,17.10
2019-04-26T06:00:34.943Z,17.20
2019-04-26T06:03:49.829Z,17.40
2019-04-26T06:06:30.243Z,17.50
2019-04-26T06:09:33.890Z,17.60
2019-04-26T06:12:27.167Z,17.80
2019-04-26T06:15:14.170Z,18.00
2019-04-26T06:18:05.775Z,18.10
2019-04-26T06:20:57.298Z,18.10
2019-04-26T06:23:40.432Z,18.20
2019-04-26T06:26:52.849Z,18.30
2019-04-26T06:29:34.362Z,18.40
2019-04-26T06:32:20.910Z,18.50
2019-04-26T06:35:22.204Z,18.50
2019-04-26T06:38:43.602Z,18.50
2019-04-26T06:42:02.894Z,18.60
2019-04-26T06:45:20.092Z,18.70
2019-04-26T06:48:24.036Z,18.80
2019-04-26T06:51:25.105Z,18.90
2019-04-26T06:54:25.715Z,19.00
2019-04-26T06:57:29.422Z,19.20
2019-04-26T07:00:19.544Z,19.20
2019-04-26T07:03:30.549Z,19.30
2019-04-26T07:06:08.043Z,19.40
2019-04-26T07:09:11.520Z,19.50
2019-04-26T07:12:02.960Z,19.50
2019-04-26T07:14:59.288Z,19.60
2019-04-26T07:17:47.666Z,19.70
2019-04-26T07:20:25.801Z,19.90
2019-04-26T07:23:38.485Z,20.00
2019-04-26T07:26:48.350Z,20.10
2019-04-26T07:29:44.526Z,20.20
2019-04-26T07:32:21.504Z,20.40
2019-04-26T07:35:13.010Z,20.40
2019-04-26T07:38:29.363Z,20.50
2019-04-26T07:41:26.818Z,20.60
2019-04-26T07:44:19.772Z,20.80
2019-04-26T07:47:26.081Z,21.00
2019-04-26T07:50:37.136Z,21.10
2019-04-26T07:53:37.450Z,21.20
2019-04-26T07:56:21.297Z,21.30
2019-04-26T07:59:35.938Z,21.40
2019-04-26T08:02:23.985Z,21.40
2019-04-26T08:05:05.895Z,21.50
2019-04-26T08:07:43.571Z,21.60
2019-04-26T08:10:18.805Z,21.70
2019-04-26T08:13:04.467Z,21.80
2019-04-26T08:15:44.301Z,21.80
2019-04-26T08:18:21.949Z,21.90
2019-04-26T08:20:53.889Z,22.10
2019-04-26T08:23:41.937Z,22.30
2019-04-26T08:26:09.189Z,22.50
2019-04-26T08:28:39.488Z,22.80
2019-04-26T08:31:11.527Z,23.10
2019-04-26T08:33:48.579Z,23.30
2019-04-26T08:36:15.411Z,23.60
2019-04-26T08:38:48.829Z,23.80
2019-04-26T08:41:18.846Z,23.90
2019-04-26T08:44:08.133Z,24.10
2019-04-26T08:46:43.496Z,24.20
2019-04-26T08:49:27.036Z,24.40
2019-04-26T08:51:57.625Z,24.30
2019-04-26T08:54:29.740Z,24.30
2019-04-26T08:57:06.636Z,24.30
2019-04-26T08:59:49.966Z,24.40
2019-04-26T09:02:22.703Z,24.40
2019-04-26T09:05:10.608Z,24.50
2019-04-26T09:07:46.156Z,24.50
2019-04-26T09:10:17.098Z,24.60
2019-04-26T09:12:47.390Z,24.60
2019-04-26T09:15:45.060Z,24.70
2019-04-26T09:18:15.311Z,24.80
2019-04-26T09:20:45.579Z,24.90
2019-04-26T09:23:40.167Z,25.00
2019-04-26T09:26:20.651Z,25.20
2019-04-26T09:28:56.516Z,25.30
2019-04-26T09:31:29.383Z,25.40
2019-04-26T09:34:01.367Z,25.30
2019-04-26T09:36:31.669Z,25.30
2019-04-26T09:39:03.965Z,25.20
2019-04-26T09:41:33.964Z,25.00
2019-04-26T09:44:05.884Z,24.80
2019-04-26T09:46:54.817Z,24.70
2019-04-26T09:49:42.945Z,24.60
2019-04-26T09:52:14.872Z,24.60
2019-04-26T09:54:45.339Z,24.60
2019-04-26T09:57:15.722Z,24.60
2019-04-26T09:59:45.934Z,24.60
2019-04-26T10:02:16.189Z,24.80
2019-04-26T10:04:46.755Z,24.80
2019-04-26T10:07:17.049Z,25.00
2019-04-26T10:09:47.351Z,25.30
2019-04-26T10:12:25.247Z,25.70
2019-04-26T10:15:08.985Z,26.00
2019-04-26T10:17:39.260Z,26.10
2019-04-26T10:20:09.541Z,26.30
2019-04-26T10:22:40.229Z,26.40
2019-04-26T10:25:16.509Z,26.50
2019-04-26T10:27:42.636Z,26.60
2019-04-26T10:30:14.642Z,26.60
2019-04-26T10:32:44.893Z,26.70
2019-04-26T10:35:17.524Z,26.50
2019-04-26T10:37:48.096Z,26.50
2019-04-26T10:40:19.049Z,26.50
2019-04-26T10:42:49.348Z,26.40
2019-04-26T10:45:20.766Z,26.50
2019-04-26T10:47:51.058Z,26.70
2019-04-26T10:50:21.544Z,26.90
2019-04-26T10:52:56.244Z,27.20
2019-04-26T10:55:26.288Z,27.30
2019-04-26T10:58:08.310Z,27.20
2019-04-26T11:00:44.312Z,26.90
2019-04-26T11:03:14.619Z,26.80
2019-04-26T11:05:44.880Z,26.80
2019-04-26T11:08:15.114Z,26.60
2019-04-26T11:10:48.874Z,26.50
2019-04-26T11:13:17.372Z,26.30
2019-04-26T11:15:47.729Z,26.30
2019-04-26T11:18:19.880Z,26.40
2019-04-26T11:20:49.961Z,26.50
2019-04-26T11:23:20.214Z,26.70
2019-04-26T11:25:50.504Z,26.70
2019-04-26T11:28:21.347Z,26.40
2019-04-26T11:30:56.988Z,26.30
2019-04-26T11:33:25.894Z,26.30
2019-04-26T11:35:56.167Z,26.20
2019-04-26T11:38:26.872Z,25.90
2019-04-26T11:41:06.136Z,25.80
2019-04-26T11:43:30.649Z,25.80
2019-04-26T11:46:04.703Z,25.80
2019-04-26T11:48:33.881Z,25.70
2019-04-26T11:51:04.160Z,25.60
2019-04-26T11:53:34.432Z,25.50
2019-04-26T11:56:05.803Z,25.60
2019-04-26T11:58:36.248Z,25.70
2019-04-26T12:01:08.159Z,25.80
2019-04-26T12:03:40.053Z,26.10
2019-04-26T12:06:14.915Z,26.30
2019-04-26T12:08:46.845Z,26.50
2019-04-26T12:11:19.012Z,26.70
2019-04-26T12:13:49.311Z,26.70
2019-04-26T12:16:20.521Z,26.70
2019-04-26T12:18:50.867Z,26.70
2019-04-26T12:21:21.168Z,26.80
2019-04-26T12:23:55.368Z,27.00
2019-04-26T12:26:23.383Z,27.40
2019-04-26T12:28:53.631Z,28.00
2019-04-26T12:31:24.197Z,28.50
2019-04-26T12:33:54.432Z,28.30
2019-04-26T12:36:24.688Z,28.30
2019-04-26T12:38:58.272Z,28.00
2019-04-26T12:41:39.975Z,27.70
2019-04-26T12:44:03.088Z,27.30
2019-04-26T12:46:38.889Z,27.20
2019-04-26T12:49:09.147Z,27.10
2019-04-26T12:51:42.794Z,27.10
2019-04-26T12:54:11.435Z,27.10
2019-04-26T12:56:41.696Z,26.90
2019-04-26T12:59:11.988Z,27.00
2019-04-26T13:01:42.691Z,27.00
2019-04-26T13:04:15.807Z,26.80
2019-04-26T13:06:47.731Z,26.80
2019-04-26T13:09:21.885Z,27.00
2019-04-26T13:11:56.536Z,26.90
2019-04-26T13:14:44.415Z,26.90
2019-04-26T13:17:35.788Z,26.80
2019-04-26T13:20:08.021Z,27.20
2019-04-26T13:22:45.844Z,27.30
2019-04-26T13:25:15.219Z,27.30
2019-04-26T13:27:45.580Z,27.40
2019-04-26T13:30:14.645Z,27.10
2019-04-26T13:32:44.904Z,27.00
2019-04-26T13:35:15.162Z,27.20
2019-04-26T13:37:45.419Z,27.40
2019-04-26T13:40:15.983Z,27.80
2019-04-26T13:42:47.496Z,27.80
2019-04-26T13:45:36.248Z,27.90
2019-04-26T13:48:23.086Z,28.20
2019-04-26T13:51:07.130Z,28.00
2019-04-26T13:53:37.370Z,27.80
2019-04-26T13:56:09.114Z,27.40
2019-04-26T13:58:39.354Z,27.30
2019-04-26T14:01:10.414Z,27.30
2019-04-26T14:03:40.703Z,27.60
2019-04-26T14:06:10.958Z,27.70
2019-04-26T14:08:41.213Z,28.90
2019-04-26T14:11:11.471Z,30.40
2019-04-26T14:13:41.714Z,31.50
2019-04-26T14:16:11.975Z,32.10
2019-04-26T14:18:42.223Z,32.10
2019-04-26T14:21:12.483Z,31.90
2019-04-26T14:23:49.501Z,32.30
2019-04-26T14:26:20.681Z,33.20
2019-04-26T14:28:54.323Z,33.80
2019-04-26T14:31:23.065Z,33.10
2019-04-26T14:33:53.312Z,33.40
2019-04-26T14:36:26.836Z,33.00
2019-04-26T14:39:05.595Z,32.30
2019-04-26T14:41:28.622Z,33.20
2019-04-26T14:43:58.871Z,32.80
2019-04-26T14:46:29.155Z,32.20
2019-04-26T14:49:02.727Z,32.40
2019-04-26T14:51:31.380Z,33.00
2019-04-26T14:54:01.662Z,32.40
2019-04-26T14:56:31.916Z,31.20
2019-04-26T14:59:08.031Z,30.00
2019-04-26T15:01:52.692Z,29.10
2019-04-26T15:04:42.218Z,28.90
2019-04-26T15:07:12.625Z,28.30
2019-04-26T15:09:42.946Z,28.30
2019-04-26T15:12:15.799Z,29.50
2019-04-26T15:14:45.223Z,30.30
2019-04-26T15:17:16.353Z,29.90
2019-04-26T15:19:47.489Z,29.60
2019-04-26T15:22:17.929Z,29.00
2019-04-26T15:24:48.173Z,28.00
2019-04-26T15:27:18.467Z,27.40
2019-04-26T15:29:48.752Z,27.00
2019-04-26T15:32:19.056Z,26.50
2019-04-26T15:34:49.554Z,26.00
2019-04-26T15:37:20.092Z,25.70
2019-04-26T15:40:12.764Z,25.70
2019-04-26T15:42:58.934Z,25.50
2019-04-26T15:45:32.699Z,25.20
2019-04-26T15:48:03.604Z,25.10
2019-04-26T15:50:35.487Z,25.00
2019-04-26T15:53:06.742Z,25.20
2019-04-26T15:55:40.268Z,27.20
2019-04-26T15:58:09.759Z,29.90
2019-04-26T16:00:40.041Z,31.70
2019-04-26T16:03:10.325Z,32.50
2019-04-26T16:05:40.689Z,33.30
2019-04-26T16:08:11.034Z,33.20
2019-04-26T16:10:42.939Z,33.60
2019-04-26T16:13:20.952Z,33.00
2019-04-26T16:15:48.777Z,32.50
2019-04-26T16:18:19.064Z,32.50
2019-04-26T16:20:49.199Z,33.40
2019-04-26T16:23:19.468Z,34.00
2019-04-26T16:25:49.724Z,32.80
2019-04-26T16:28:31.120Z,32.30
2019-04-26T16:31:15.608Z,32.60
2019-04-26T16:33:50.232Z,32.30
2019-04-26T16:36:21.897Z,33.10
2019-04-26T16:38:56.099Z,32.50
2019-04-26T16:41:27.223Z,32.20
2019-04-26T16:43:56.587Z,32.10
2019-04-26T16:46:26.874Z,32.20
2019-04-26T16:49:02.310Z,31.70
2019-04-26T16:51:33.292Z,31.10
2019-04-26T16:56:35.999Z,30.20
2019-04-26T16:59:06.713Z,29.80
2019-04-26T17:00:33.600Z,30.30
2019-04-26T17:01:38.101Z,29.10
2019-04-26T17:04:11.347Z,28.20
2019-04-26T17:06:44.804Z,27.50
2019-04-26T17:09:14.346Z,26.90
2019-04-26T17:11:46.180Z,26.80
2019-04-26T17:14:16.463Z,26.10
2019-04-26T17:16:46.720Z,25.70
2019-04-26T17:19:19.742Z,25.30
2019-04-26T17:21:56.617Z,24.80
2019-04-26T17:24:46.158Z,24.60
2019-04-26T17:27:15.377Z,24.10
2019-04-26T17:29:45.698Z,23.60
2019-04-26T17:32:17.480Z,23.50
2019-04-26T17:34:47.799Z,23.70
2019-04-26T17:37:21.890Z,23.60
2019-04-26T17:39:52.133Z,23.40
2019-04-26T17:42:25.214Z,23.10
2019-04-26T17:44:57.643Z,22.70
2019-04-26T17:47:28.287Z,21.90
2019-04-26T17:50:02.750Z,21.20
2019-04-26T17:52:36.179Z,20.70
2019-04-26T17:55:02.259Z,20.30
2019-04-26T17:57:36.749Z,19.90
2019-04-26T18:00:11.362Z,19.70
2019-04-26T18:02:44.683Z,19.40
2019-04-26T18:05:13.034Z,19.20
2019-04-26T18:07:50.425Z,19.00
2019-04-26T18:10:15.602Z,18.80
2019-04-26T18:12:47.310Z,18.60
2019-04-26T18:15:19.521Z,18.50
2019-04-26T18:17:51.526Z,18.40
2019-04-26T18:20:25.855Z,18.30
2019-04-26T18:22:57.855Z,18.10
2019-04-26T18:25:28.102Z,18.00
2019-04-26T18:27:58.362Z,17.90
2019-04-26T18:30:29.124Z,17.80
2019-04-26T18:32:59.369Z,17.80
2019-04-26T18:35:29.637Z,17.70
2019-04-26T18:37:59.900Z,17.60
2019-04-26T18:40:35.400Z,17.50
2019-04-26T18:43:03.432Z,17.40
2019-04-26T18:45:34.663Z,17.30
2019-04-26T18:48:05.008Z,17.20
2019-04-26T18:50:36.451Z,17.00
2019-04-26T18:53:13.869Z,17.00
2019-04-26T18:55:45.863Z,16.90
2019-04-26T18:58:16.303Z,16.80
2019-04-26T19:00:46.591Z,16.80
2019-04-26T19:03:16.836Z,16.70
2019-04-26T19:05:47.258Z,16.60
2019-04-26T19:08:21.729Z,16.60
2019-04-26T19:11:00.524Z,16.60
2019-04-26T19:13:25.732Z,16.60
2019-04-26T19:16:16.746Z,16.50
2019-04-26T19:18:48.666Z,16.40
2019-04-26T19:21:40.358Z,16.40
2019-04-26T19:24:19.459Z,16.40
2019-04-26T19:26:49.652Z,16.30
2019-04-26T19:29:18.733Z,16.40
2019-04-26T19:31:48.409Z,16.50
2019-04-26T19:34:18.690Z,16.60
2019-04-26T19:36:48.973Z,16.50
2019-04-26T19:39:22.801Z,16.50
2019-04-26T19:41:57.517Z,16.40
2019-04-26T19:44:24.451Z,16.30
2019-04-26T19:47:12.378Z,16.30
2019-04-26T19:50:03.250Z,16.30
2019-04-26T19:52:39.485Z,16.30
2019-04-26T19:55:11.324Z,16.20
2019-04-26T19:57:56.844Z,16.10
2019-04-26T20:00:27.109Z,16.10
2019-04-26T20:02:57.597Z,16.10
2019-04-26T20:05:28.645Z,16.10
2019-04-26T20:08:04.552Z,16.10
2019-04-26T20:10:36.216Z,16.00
2019-04-26T20:13:03.409Z,16.00
2019-04-26T20:15:33.669Z,16.00
2019-04-26T20:18:04.271Z,16.00
2019-04-26T20:20:36.200Z,16.00
2019-04-26T20:23:08.063Z,15.90
2019-04-26T20:25:38.578Z,15.90
2019-04-26T20:28:10.448Z,15.90
2019-04-26T20:30:47.059Z,15.80
2019-04-26T20:33:17.543Z,15.80
2019-04-26T20:35:47.806Z,15.70
2019-04-26T20:38:18.062Z,15.80
2019-04-26T20:40:49.023Z,15.80
2019-04-26T20:43:26.244Z,15.80
2019-04-26T20:46:10.865Z,15.80
2019-04-26T20:48:25.561Z,15.80
2019-04-26T20:50:56.758Z,15.70
2019-04-26T20:53:30.842Z,15.70
2019-04-26T20:56:03.801Z,15.60
2019-04-26T20:58:33.347Z,15.60
2019-04-26T21:01:06.395Z,15.60
2019-04-26T21:03:41.917Z,15.50
2019-04-26T21:06:11.446Z,15.40
2019-04-26T21:08:42.504Z,15.40
2019-04-26T21:11:13.657Z,15.30
2019-04-26T21:13:44.146Z,15.30
2019-04-26T21:16:15.449Z,15.30
2019-04-26T21:18:45.956Z,15.20
2019-04-26T21:21:16.572Z,15.20
2019-04-26T21:23:49.616Z,15.20
2019-04-26T21:26:24.175Z,15.10
2019-04-26T21:29:15.460Z,15.00
2019-04-26T21:31:47.190Z,14.90
2019-04-26T21:34:30.953Z,14.90
2019-04-26T21:37:05.526Z,14.90
2019-04-26T21:39:44.143Z,14.80
2019-04-26T21:42:17.196Z,14.80
2019-04-26T21:44:51.815Z,14.80
2019-04-26T21:47:18.521Z,14.80
2019-04-26T21:49:54.117Z,14.70
2019-04-26T21:52:21.384Z,14.70
2019-04-26T21:54:56.290Z,14.70
2019-04-26T21:57:27.832Z,14.70
2019-04-26T21:59:56.780Z,14.60
2019-04-26T22:02:29.542Z,14.60
2019-04-26T22:04:59.032Z,14.60
2019-04-26T22:07:29.315Z,14.50
2019-04-26T22:10:01.232Z,14.50
2019-04-26T22:12:32.335Z,14.40
2019-04-26T22:15:13.764Z,14.40
2019-04-26T22:18:03.220Z,14.30
2019-04-26T22:20:35.257Z,14.30
2019-04-26T22:23:07.182Z,14.30
2019-04-26T22:25:39.140Z,14.20
2019-04-26T22:28:09.391Z,14.20
2019-04-26T22:30:39.657Z,14.20
2019-04-26T22:33:09.976Z,14.10
2019-04-26T22:35:40.817Z,14.00
2019-04-26T22:38:11.099Z,13.70
2019-04-26T22:40:41.379Z,13.40
2019-04-26T22:43:20.224Z,13.20
2019-04-26T22:45:53.590Z,13.00
2019-04-26T22:48:25.835Z,12.80
2019-04-26T22:50:58.370Z,12.70
2019-04-26T22:53:28.109Z,12.50
2019-04-26T22:56:01.424Z,12.40
2019-04-26T22:58:30.335Z,12.30
2019-04-26T23:01:03.553Z,12.10
2019-04-26T23:03:36.481Z,11.90
2019-04-26T23:06:07.831Z,11.80
2019-04-26T23:08:38.197Z,11.60
2019-04-26T23:11:10.590Z,11.50
2019-04-26T23:13:48.444Z,11.50
2019-04-26T23:16:23.492Z,11.40
2019-04-26T23:18:55.437Z,11.30
2019-04-26T23:21:27.443Z,11.30
2019-04-26T23:23:57.700Z,11.30
2019-04-26T23:26:27.970Z,11.20
2019-04-26T23:28:58.230Z,11.10
2019-04-26T23:31:28.536Z,11.00
2019-04-26T23:33:58.795Z,11.00
2019-04-26T23:36:29.106Z,11.00
2019-04-26T23:38:59.403Z,10.80
2019-04-26T23:41:29.694Z,10.80
2019-04-26T23:44:02.942Z,10.80
2019-04-26T23:46:33.100Z,10.70
2019-04-26T23:49:03.354Z,10.70
2019-04-26T23:51:34.012Z,10.60
2019-04-26T23:54:04.309Z,10.50
2019-04-26T23:56:34.583Z,10.50
2019-04-26T23:59:04.910Z,10.40
